Time-03,TemperatureF,Dew PointF,Humidity,Sea Level PressureIn,VisibilityMPH,Wind Direction,Wind SpeedMPH,Gust SpeedMPH,PrecipitationIn,Events,Conditions,WindDirDegrees,DateUTC
12:00 AM,66.2,66.2,100,30.09,6.2,NE,4.6,-,N/A,,Mostly Cloudy,50,2013-07-14 03:00:00
1:00 AM,64.4,64.4,100,30.06,6.2,NE,5.8,-,N/A,,Mostly Cloudy,50,2013-07-14 04:00:00
2:00 AM,64.4,64.4,100,30.06,-9999.0,NE,4.6,-,N/A,,Clear,50,2013-07-14 05:00:00
3:00 AM,63,63,98,29.99,12,NE,8.9,,,,Mostly Cloudy,50,2013-07-14 06:00:00
3:00 AM,62.6,62.6,100,30.04,-9999.0,NE,4.6,-,N/A,,Clear,50,2013-07-14 06:00:00
4:00 AM,62.6,62.6,100,30.04,-9999.0,NE,3.5,-,N/A,,Clear,50,2013-07-14 07:00:00
5:00 AM,62.6,60.8,94,30.04,-9999.0,NE,3.5,-,N/A,,Clear,50,2013-07-14 08:00:00
6:00 AM,60.8,60.8,100,30.04,-9999.0,NE,6.9,-,N/A,,Clear,50,2013-07-14 09:00:00
7:00 AM,60.8,60.8,100,30.06,6.2,NE,6.9,-,N/A,,Mostly Cloudy,50,2013-07-14 10:00:00
8:00 AM,60.8,60.8,100,30.06,5.0,NE,5.8,-,N/A,,Unknown,50,2013-07-14 11:00:00
9:00 AM,63,62,96,30.05,6,NE,11.2,,,,Partly Cloudy,50,2013-07-14 12:00:00
9:00 AM,62.6,62.6,100,30.09,-9999.0,NE,5.8,-,N/A,,Clear,50,2013-07-14 12:00:00
10:00 AM,68.0,62.6,83,30.09,-9999.0,NE,8.1,-,N/A,,Clear,50,2013-07-14 13:00:00
11:00 AM,68.0,64.4,88,30.12,-9999.0,NE,3.5,-,N/A,,Clear,50,2013-07-14 14:00:00
12:00 PM,69.8,64.4,83,30.09,-9999.0,NE,3.5,-,N/A,,Clear,50,2013-07-14 15:00:00
1:00 PM,77.0,62.6,61,30.09,-9999.0,NE,4.6,-,N/A,,Clear,50,2013-07-14 16:00:00
2:00 PM,73.4,62.6,69,30.06,-9999.0,NNE,4.6,-,N/A,,Clear,20,2013-07-14 17:00:00
3:00 PM,74,63,61,29.99,12,NNE,6.7,,,,Mostly Cloudy,20,2013-07-14 18:00:00
3:00 PM,73.4,62.6,69,30.04,-9999.0,NNE,3.5,-,N/A,,Clear,20,2013-07-14 18:00:00
4:00 PM,75.2,66.2,73,30.04,-9999.0,NE,3.5,-,N/A,,Clear,50,2013-07-14 19:00:00
5:00 PM,75.2,64.4,69,30.04,-9999.0,Calm,Calm,-,N/A,,Clear,0,2013-07-14 20:00:00
6:00 PM,71.6,66.2,83,30.04,-9999.0,NE,2.3,-,N/A,,Clear,50,2013-07-14 21:00:00
7:00 PM,69.8,66.2,88,30.04,-9999.0,NE,3.5,-,N/A,,Clear,50,2013-07-14 22:00:00
8:00 PM,68.0,64.4,88,30.06,-9999.0,Calm,Calm,-,N/A,,Clear,0,2013-07-14 23:00:00
9:00 PM,66,64,90,30.03,12,Calm,Calm,,,,,,2013-07-15 00:00:00
9:00 PM,66.2,64.4,94,30.06,-9999.0,Calm,Calm,-,N/A,,Clear,0,2013-07-15 00:00:00
10:00 PM,66.2,64.4,94,30.06,-9999.0,Calm,Calm,-,N/A,,Clear,0,2013-07-15 01:00:00
11:00 PM,64.4,62.6,94,30.06,-9999.0,Calm,Calm,-,N/A,,Clear,0,2013-07-15 02:00:00